PWSweather.com
Personal Weather Stations
Station Observations

PoschiavoCH

Lat: 46.31962499999999, Lon: 10.066551000000004

Elevation: 3517

Station Type: WH 1080

http://www.meteoposchiavo.com

High Low Average
Temperature 76.0°F24.4°C 46.0°F7.8°C 60.5°F15.8°C
Dew Point 59.2°F15.1°C 35.5°F1.9°C 47.6°F8.7°C
Winds 4.6 mph 7.4 kmh Calm Calm 1.0 mph SE1.6 kmh SE
Wind Gusts 8.1 mph13.0 kmh -- 1.0 mph1.6 kmh
Humidity 99% 23% 68%
Pressure 26.74 in905.5 mb 26.37 in893.0 mb -
Precipitation 4.64 in117.9 mm - -
Hour Temp Dew Point Humidity Winds Wind Gusts Pressure Precip Precip Rate Daily Precip Total
12:00 AM 51.0°F10.6°C 50.7°F10.4°C 99% Calm Calm -- 26.55 in899.1 mb - 0.55 in14.0 mm 0.55 in14.0 mm
12:10 AM 50.0°F10.0°C 49.7°F9.8°C 99% Calm Calm -- 26.55 in899.1 mb - 0.00 in0.0 mm 0.55 in14.0 mm
12:15 AM 50.0°F10.0°C 49.7°F9.8°C 99% Calm Calm -- 26.55 in899.1 mb - 0.00 in0.0 mm 0.55 in14.0 mm
12:20 AM 57.0°F13.9°C 55.9°F13.3°C 96% Calm Calm 1.2 mph1.9 kmh 26.52 in898.1 mb - 0.00 in0.0 mm 0.55 in14.0 mm
12:25 AM 50.0°F10.0°C 49.7°F9.8°C 99% Calm Calm -- 26.55 in899.1 mb - 0.01 in0.3 mm 0.56 in14.2 mm
12:30 AM 50.0°F10.0°C 49.7°F9.8°C 99% Calm Calm -- 26.55 in899.1 mb - 0.01 in0.3 mm 0.56 in14.2 mm
12:35 AM 50.0°F10.0°C 49.7°F9.8°C 99% Calm Calm -- 26.55 in899.1 mb - 0.01 in0.3 mm 0.56 in14.2 mm
12:40 AM 50.0°F10.0°C 49.7°F9.8°C 99% Calm Calm -- 26.55 in899.1 mb - 0.01 in0.3 mm 0.56 in14.2 mm
12:45 AM 50.0°F10.0°C 49.7°F9.8°C 99% Calm Calm -- 26.55 in899.1 mb - 0.01 in0.3 mm 0.56 in14.2 mm
12:50 AM 50.0°F10.0°C 49.7°F9.8°C 99% Calm Calm -- 26.55 in899.1 mb - 0.01 in0.3 mm 0.56 in14.2 mm
12:55 AM 50.0°F10.0°C 49.7°F9.8°C 99% Calm Calm -- 26.55 in899.1 mb - 0.01 in0.3 mm 0.56 in14.2 mm
01:00 AM 50.0°F10.0°C 49.7°F9.8°C 99% Calm Calm -- 26.55 in899.1 mb - 0.01 in0.3 mm 0.56 in14.2 mm
01:10 AM 50.0°F10.0°C 49.7°F9.8°C 99% Calm Calm -- 26.54 in898.7 mb - 0.01 in0.3 mm 0.56 in14.2 mm
01:15 AM 50.0°F10.0°C 49.7°F9.8°C 99% Calm Calm -- 26.54 in898.7 mb - 0.01 in0.3 mm 0.56 in14.2 mm
01:20 AM 50.0°F10.0°C 49.7°F9.8°C 99% Calm Calm -- 26.55 in899.1 mb - 0.01 in0.3 mm 0.56 in14.2 mm
01:25 AM 50.0°F10.0°C 49.7°F9.8°C 99% Calm Calm -- 26.55 in899.1 mb - 0.66 in16.8 mm 1.22 in31.0 mm
01:30 AM 50.0°F10.0°C 49.7°F9.8°C 99% Calm Calm -- 26.55 in899.1 mb - 0.66 in16.8 mm 1.22 in31.0 mm
01:35 AM 50.0°F10.0°C 49.7°F9.8°C 99% Calm Calm -- 26.54 in898.7 mb - 0.66 in16.8 mm 1.22 in31.0 mm
01:40 AM 50.0°F10.0°C 49.7°F9.8°C 99% Calm Calm -- 26.55 in899.1 mb - 0.66 in16.8 mm 1.22 in31.0 mm
01:45 AM 49.2°F9.6°C 49.0°F9.4°C 99% Calm Calm -- 26.55 in899.1 mb - 0.66 in16.8 mm 1.22 in31.0 mm
01:50 AM 49.0°F9.4°C 48.7°F9.3°C 99% Calm Calm -- 26.55 in899.1 mb - 0.66 in16.8 mm 1.22 in31.0 mm
01:55 AM 49.0°F9.4°C 48.7°F9.3°C 99% Calm Calm -- 26.55 in899.1 mb - 0.66 in16.8 mm 1.22 in31.0 mm
02:00 AM 49.0°F9.4°C 48.7°F9.3°C 99% Calm Calm -- 26.55 in899.1 mb - 0.66 in16.8 mm 1.22 in31.0 mm
02:10 AM 48.0°F8.9°C 47.7°F8.7°C 99% Calm Calm -- 26.55 in899.1 mb - 0.66 in16.8 mm 1.22 in31.0 mm
02:15 AM 48.0°F8.9°C 47.7°F8.7°C 99% Calm Calm -- 26.55 in899.1 mb - 0.66 in16.8 mm 1.22 in31.0 mm
02:20 AM 48.0°F8.9°C 47.7°F8.7°C 99% Calm Calm -- 26.54 in898.7 mb - 0.66 in16.8 mm 1.22 in31.0 mm
02:25 AM 48.0°F8.9°C 47.7°F8.7°C 99% Calm Calm -- 26.54 in898.7 mb - 0.00 in0.0 mm 1.22 in31.0 mm
02:30 AM 48.0°F8.9°C 47.7°F8.7°C 99% Calm Calm -- 26.55 in899.1 mb - 0.00 in0.0 mm 1.22 in31.0 mm
02:35 AM 47.0°F8.3°C 46.7°F8.2°C 99% Calm Calm -- 26.55 in899.1 mb - 0.00 in0.0 mm 1.22 in31.0 mm
02:40 AM 48.0°F8.9°C 47.7°F8.7°C 99% Calm Calm -- 26.54 in898.7 mb - 0.00 in0.0 mm 1.22 in31.0 mm
02:45 AM 47.0°F8.3°C 46.7°F8.2°C 99% Calm Calm -- 26.55 in899.1 mb - 0.00 in0.0 mm 1.22 in31.0 mm
02:50 AM 48.0°F8.9°C 47.7°F8.7°C 99% Calm Calm -- 26.55 in899.1 mb - 0.00 in0.0 mm 1.22 in31.0 mm
02:55 AM 48.0°F8.9°C 47.7°F8.7°C 99% Calm Calm -- 26.55 in899.1 mb - 0.00 in0.0 mm 1.22 in31.0 mm
03:00 AM 48.0°F8.9°C 47.7°F8.7°C 99% Calm Calm -- 26.55 in899.1 mb - 0.00 in0.0 mm 1.22 in31.0 mm
03:10 AM 48.0°F8.9°C 47.7°F8.7°C 99% Calm Calm -- 26.55 in899.1 mb - 0.66 in16.8 mm 1.88 in47.8 mm
03:15 AM 51.0°F10.6°C 50.7°F10.4°C 99% Calm Calm -- 26.55 in899.1 mb - 1.32 in33.5 mm 2.54 in64.5 mm
03:20 AM 48.0°F8.9°C 47.7°F8.7°C 99% Calm Calm -- 26.55 in899.1 mb - 1.32 in33.5 mm 2.54 in64.5 mm
03:25 AM 48.0°F8.9°C 47.7°F8.7°C 99% Calm Calm -- 26.55 in899.1 mb - 1.32 in33.5 mm 2.54 in64.5 mm
03:30 AM 48.0°F8.9°C 47.7°F8.7°C 99% Calm Calm -- 26.55 in899.1 mb - 1.32 in33.5 mm 2.54 in64.5 mm
03:35 AM 48.0°F8.9°C 47.7°F8.7°C 99% Calm Calm -- 26.54 in898.7 mb - 1.32 in33.5 mm 2.54 in64.5 mm
03:40 AM 48.0°F8.9°C 47.7°F8.7°C 99% Calm Calm -- 26.55 in899.1 mb - 1.32 in33.5 mm 2.54 in64.5 mm
03:45 AM 48.0°F8.9°C 47.7°F8.7°C 99% Calm Calm -- 26.55 in899.1 mb - 1.32 in33.5 mm 2.54 in64.5 mm
03:50 AM 51.0°F10.6°C 50.7°F10.4°C 99% Calm Calm -- 26.56 in899.4 mb - 1.98 in50.3 mm 3.20 in81.3 mm
03:55 AM 48.0°F8.9°C 47.7°F8.7°C 99% Calm Calm -- 26.55 in899.1 mb - 1.98 in50.3 mm 3.20 in81.3 mm
04:00 AM 48.0°F8.9°C 47.7°F8.7°C 99% Calm Calm -- 26.54 in898.7 mb - 1.98 in50.3 mm 3.20 in81.3 mm
04:10 AM 48.0°F8.9°C 47.7°F8.7°C 99% Calm Calm -- 26.55 in899.1 mb - 1.32 in33.5 mm 3.20 in81.3 mm
04:15 AM 47.0°F8.3°C 46.5°F8.1°C 98% Calm Calm -- 26.55 in899.1 mb - 0.66 in16.8 mm 3.20 in81.3 mm
04:20 AM 48.0°F8.9°C 47.7°F8.7°C 99% Calm Calm -- 26.55 in899.1 mb - 0.66 in16.8 mm 3.20 in81.3 mm
04:25 AM 47.0°F8.3°C 46.7°F8.2°C 99% Calm Calm -- 26.55 in899.1 mb - 0.66 in16.8 mm 3.20 in81.3 mm
04:30 AM 47.0°F8.3°C 46.7°F8.2°C 99% Calm Calm 1.2 mph1.9 kmh 26.55 in899.1 mb - 0.66 in16.8 mm 3.20 in81.3 mm
04:35 AM 47.0°F8.3°C 46.7°F8.2°C 99% Calm Calm 1.2 mph1.9 kmh 26.55 in899.1 mb - 0.66 in16.8 mm 3.20 in81.3 mm
04:40 AM 48.0°F8.9°C 47.7°F8.7°C 99% Calm Calm -- 26.55 in899.1 mb - 0.66 in16.8 mm 3.20 in81.3 mm
04:45 AM 47.0°F8.3°C 46.7°F8.2°C 99% Calm Calm -- 26.56 in899.4 mb - 0.66 in16.8 mm 3.20 in81.3 mm
04:50 AM 47.0°F8.3°C 46.7°F8.2°C 99% Calm Calm -- 26.56 in899.4 mb - 0.00 in0.0 mm 3.20 in81.3 mm
04:55 AM 47.0°F8.3°C 46.7°F8.2°C 99% Calm Calm -- 26.56 in899.4 mb - 0.00 in0.0 mm 3.20 in81.3 mm
05:00 AM 47.0°F8.3°C 46.7°F8.2°C 99% Calm Calm -- 26.56 in899.4 mb - 0.00 in0.0 mm 3.20 in81.3 mm
05:10 AM 47.0°F8.3°C 46.7°F8.2°C 99% Calm Calm -- 26.57 in899.8 mb - 0.00 in0.0 mm 3.20 in81.3 mm
05:15 AM 47.0°F8.3°C 46.7°F8.2°C 99% Calm Calm -- 26.57 in899.8 mb - 0.00 in0.0 mm 3.20 in81.3 mm
05:20 AM 47.0°F8.3°C 46.7°F8.2°C 99% Calm Calm -- 26.57 in899.8 mb - 0.00 in0.0 mm 3.20 in81.3 mm
05:25 AM 47.0°F8.3°C 46.7°F8.2°C 99% Calm Calm -- 26.57 in899.8 mb - 0.00 in0.0 mm 3.20 in81.3 mm
05:30 AM 47.0°F8.3°C 46.7°F8.2°C 99% Calm Calm -- 26.57 in899.8 mb - 0.00 in0.0 mm 3.20 in81.3 mm
05:35 AM 46.9°F8.3°C 46.6°F8.1°C 99% Calm Calm -- 26.57 in899.8 mb - 0.00 in0.0 mm 3.20 in81.3 mm
05:40 AM 46.0°F7.8°C 45.7°F7.6°C 99% Calm Calm -- 26.57 in899.8 mb - 0.00 in0.0 mm 3.20 in81.3 mm
05:45 AM 46.0°F7.8°C 45.7°F7.6°C 99% Calm Calm -- 26.57 in899.8 mb - 0.00 in0.0 mm 3.20 in81.3 mm
05:50 AM 47.0°F8.3°C 46.7°F8.2°C 99% Calm Calm -- 26.58 in900.1 mb - 0.00 in0.0 mm 3.20 in81.3 mm
05:55 AM 47.0°F8.3°C 46.7°F8.2°C 99% Calm Calm -- 26.57 in899.8 mb - 0.00 in0.0 mm 3.20 in81.3 mm
06:00 AM 47.0°F8.3°C 46.7°F8.2°C 99% Calm Calm -- 26.58 in900.1 mb - 0.00 in0.0 mm 3.20 in81.3 mm
06:10 AM 47.0°F8.3°C 46.7°F8.2°C 99% Calm Calm -- 26.57 in899.8 mb - 0.00 in0.0 mm 3.20 in81.3 mm
06:15 AM 47.0°F8.3°C 46.7°F8.2°C 99% Calm Calm -- 26.57 in899.8 mb - 0.00 in0.0 mm 3.20 in81.3 mm
06:20 AM 47.0°F8.3°C 46.7°F8.2°C 99% Calm Calm -- 26.58 in900.1 mb - 0.00 in0.0 mm 3.20 in81.3 mm
06:25 AM 47.0°F8.3°C 46.7°F8.2°C 99% Calm Calm -- 26.58 in900.1 mb - 0.00 in0.0 mm 3.20 in81.3 mm
06:30 AM 46.1°F7.8°C 45.8°F7.7°C 99% Calm Calm -- 26.58 in900.1 mb - 0.00 in0.0 mm 3.20 in81.3 mm
06:35 AM 46.0°F7.8°C 45.7°F7.6°C 99% Calm Calm -- 26.58 in900.1 mb - 0.00 in0.0 mm 3.20 in81.3 mm
06:40 AM 46.0°F7.8°C 45.7°F7.6°C 99% Calm Calm -- 26.57 in899.8 mb - 0.00 in0.0 mm 3.20 in81.3 mm
06:45 AM 46.0°F7.8°C 45.7°F7.6°C 99% Calm Calm -- 26.58 in900.1 mb - 0.00 in0.0 mm 3.20 in81.3 mm
06:50 AM 46.0°F7.8°C 45.7°F7.6°C 99% Calm Calm -- 26.57 in899.8 mb - 0.00 in0.0 mm 3.20 in81.3 mm
06:55 AM 46.0°F7.8°C 45.7°F7.6°C 99% Calm Calm -- 26.59 in900.4 mb - 0.00 in0.0 mm 3.20 in81.3 mm
07:00 AM 46.0°F7.8°C 45.5°F7.5°C 98% Calm Calm -- 26.55 in899.1 mb - 0.70 in17.8 mm 3.90 in99.1 mm
07:10 AM 46.0°F7.8°C 45.7°F7.6°C 99% Calm Calm -- 26.59 in900.4 mb - 0.70 in17.8 mm 3.90 in99.1 mm
07:15 AM 46.0°F7.8°C 45.7°F7.6°C 99% Calm Calm -- 26.58 in900.1 mb - 0.70 in17.8 mm 3.90 in99.1 mm
07:20 AM 46.0°F7.8°C 45.5°F7.5°C 98% Calm Calm -- 26.58 in900.1 mb - 0.70 in17.8 mm 3.90 in99.1 mm
07:25 AM 47.0°F8.3°C 46.7°F8.2°C 99% Calm Calm -- 26.58 in900.1 mb - 0.70 in17.8 mm 3.90 in99.1 mm
07:30 AM 47.9°F8.8°C 47.6°F8.7°C 99% Calm Calm -- 26.58 in900.1 mb - 0.70 in17.8 mm 3.90 in99.1 mm
07:35 AM 48.1°F8.9°C 47.8°F8.8°C 99% Calm Calm -- 26.58 in900.1 mb - 0.70 in17.8 mm 3.90 in99.1 mm
07:40 AM 51.0°F10.6°C 50.2°F10.1°C 97% Calm Calm -- 26.58 in900.1 mb - 0.70 in17.8 mm 3.90 in99.1 mm
07:45 AM 52.0°F11.1°C 50.0°F10.0°C 93% Calm Calm -- 26.58 in900.1 mb - 0.70 in17.8 mm 3.90 in99.1 mm
07:50 AM 55.0°F12.8°C 52.4°F11.3°C 91% Calm Calm -- 26.58 in900.1 mb - 0.70 in17.8 mm 3.90 in99.1 mm
07:55 AM 57.0°F13.9°C 52.5°F11.4°C 85% Calm Calm -- 26.58 in900.1 mb - 0.70 in17.8 mm 3.90 in99.1 mm
08:00 AM 57.9°F14.4°C 53.1°F11.7°C 84% Calm Calm -- 26.58 in900.1 mb - 0.00 in0.0 mm 3.90 in99.1 mm
08:10 AM 60.0°F15.6°C 54.5°F12.5°C 82% Calm Calm -- 26.57 in899.8 mb - 0.00 in0.0 mm 3.90 in99.1 mm
08:15 AM 61.0°F16.1°C 55.8°F13.2°C 83% Calm Calm -- 26.59 in900.4 mb - 0.00 in0.0 mm 3.90 in99.1 mm
08:20 AM 62.0°F16.7°C 56.1°F13.4°C 81% Calm Calm -- 26.58 in900.1 mb - 0.00 in0.0 mm 3.90 in99.1 mm
08:25 AM 62.0°F16.7°C 55.8°F13.2°C 80% Calm Calm -- 26.58 in900.1 mb - 0.00 in0.0 mm 3.90 in99.1 mm
08:30 AM 63.0°F17.2°C 56.0°F13.3°C 78% Calm Calm -- 26.58 in900.1 mb - 0.00 in0.0 mm 3.90 in99.1 mm
08:35 AM 64.0°F17.8°C 56.3°F13.5°C 76% Calm Calm -- 26.58 in900.1 mb - 0.00 in0.0 mm 3.90 in99.1 mm
08:40 AM 64.0°F17.8°C 55.2°F12.9°C 73% Calm Calm -- 26.58 in900.1 mb - 0.00 in0.0 mm 3.90 in99.1 mm
08:45 AM 64.0°F17.8°C 52.4°F11.3°C 66% Calm Calm -- 26.57 in899.8 mb - 0.00 in0.0 mm 3.90 in99.1 mm
08:50 AM 64.0°F17.8°C 52.4°F11.3°C 66% Calm Calm -- 26.58 in900.1 mb - 0.00 in0.0 mm 3.90 in99.1 mm
08:55 AM 67.1°F19.5°C 54.5°F12.5°C 64% Calm Calm -- 26.57 in899.8 mb - 0.00 in0.0 mm 3.90 in99.1 mm
09:00 AM 68.0°F20.0°C 55.4°F13.0°C 64% Calm Calm -- 26.57 in899.8 mb - 0.00 in0.0 mm 3.90 in99.1 mm
09:10 AM 66.0°F18.9°C 54.7°F12.6°C 67% Calm Calm -- 26.57 in899.8 mb - 0.00 in0.0 mm 3.90 in99.1 mm
09:15 AM 66.0°F18.9°C 56.3°F13.5°C 71% Calm Calm -- 26.57 in899.8 mb - 0.00 in0.0 mm 3.90 in99.1 mm
09:20 AM 68.0°F20.0°C 58.2°F14.6°C 71% Calm Calm -- 26.57 in899.8 mb - 0.00 in0.0 mm 3.90 in99.1 mm
09:25 AM 68.0°F20.0°C 53.2°F11.8°C 59% Calm Calm -- 26.57 in899.8 mb - 0.00 in0.0 mm 3.90 in99.1 mm
09:30 AM 69.0°F20.6°C 53.6°F12.0°C 58% Calm Calm -- 26.57 in899.8 mb - 0.00 in0.0 mm 3.90 in99.1 mm
09:35 AM 69.0°F20.6°C 52.6°F11.4°C 56% Calm Calm -- 26.57 in899.8 mb - 0.00 in0.0 mm 3.90 in99.1 mm
09:40 AM 69.0°F20.6°C 53.1°F11.7°C 57% Calm Calm -- 26.57 in899.8 mb - 0.00 in0.0 mm 3.90 in99.1 mm
09:45 AM 70.0°F21.1°C 52.1°F11.2°C 53% Calm Calm -- 26.56 in899.4 mb - 0.00 in0.0 mm 3.90 in99.1 mm
09:50 AM 70.0°F21.1°C 54.1°F12.3°C 57% 1.2 mph SE1.9 kmh SE 1.2 mph1.9 kmh 26.57 in899.8 mb - 0.00 in0.0 mm 3.90 in99.1 mm
09:55 AM 69.0°F20.6°C 53.6°F12.0°C 58% 1.2 mph SE1.9 kmh SE 1.2 mph1.9 kmh 26.57 in899.8 mb - 0.00 in0.0 mm 3.90 in99.1 mm
10:00 AM 69.0°F20.6°C 53.6°F12.0°C 58% Calm Calm -- 26.56 in899.4 mb - 0.00 in0.0 mm 3.90 in99.1 mm
10:10 AM 70.0°F21.1°C 55.0°F12.8°C 59% Calm Calm 1.2 mph1.9 kmh 26.56 in899.4 mb - 0.00 in0.0 mm 3.90 in99.1 mm
10:15 AM 72.0°F22.2°C 53.9°F12.2°C 53% 1.2 mph SW1.9 kmh SW 2.3 mph3.7 kmh 26.56 in899.4 mb - 0.00 in0.0 mm 3.90 in99.1 mm
10:20 AM 72.8°F22.7°C 55.7°F13.2°C 55% 2.3 mph WSW3.7 kmh WSW 2.3 mph3.7 kmh 26.56 in899.4 mb - 0.00 in0.0 mm 3.90 in99.1 mm
10:25 AM 73.0°F22.8°C 56.4°F13.6°C 56% 2.3 mph WSW3.7 kmh WSW 2.3 mph3.7 kmh 26.56 in899.4 mb - 0.00 in0.0 mm 3.90 in99.1 mm
10:30 AM 69.0°F20.6°C 55.4°F13.0°C 62% 2.3 mph WSW3.7 kmh WSW 2.3 mph3.7 kmh 26.56 in899.4 mb - 0.00 in0.0 mm 3.90 in99.1 mm
10:35 AM 69.0°F20.6°C 56.3°F13.5°C 64% 2.3 mph W3.7 kmh W 3.5 mph5.6 kmh 26.56 in899.4 mb - 0.00 in0.0 mm 3.90 in99.1 mm
10:40 AM 68.0°F20.0°C 56.2°F13.4°C 66% 1.2 mph WSW1.9 kmh WSW 2.3 mph3.7 kmh 26.56 in899.4 mb - 0.00 in0.0 mm 3.90 in99.1 mm
10:45 AM 70.0°F21.1°C 58.1°F14.5°C 66% 1.2 mph S1.9 kmh S 1.2 mph1.9 kmh 26.55 in899.1 mb - 0.00 in0.0 mm 3.90 in99.1 mm
10:50 AM 68.5°F20.3°C 56.7°F13.7°C 66% 2.3 mph SW3.7 kmh SW 3.5 mph5.6 kmh 26.56 in899.4 mb - 0.00 in0.0 mm 3.90 in99.1 mm
10:55 AM 68.0°F20.0°C 56.2°F13.4°C 66% 2.3 mph SW3.7 kmh SW 3.5 mph5.6 kmh 26.56 in899.4 mb - 0.00 in0.0 mm 3.90 in99.1 mm
11:00 AM 69.0°F20.6°C 55.4°F13.0°C 62% 1.2 mph SW1.9 kmh SW 2.3 mph3.7 kmh 26.55 in899.1 mb - 0.00 in0.0 mm 3.90 in99.1 mm
11:10 AM 69.0°F20.6°C 55.9°F13.3°C 63% 3.5 mph S5.6 kmh S 3.5 mph5.6 kmh 26.56 in899.4 mb - 0.00 in0.0 mm 3.90 in99.1 mm
11:15 AM 68.0°F20.0°C 56.2°F13.4°C 66% 3.5 mph WSW5.6 kmh WSW 3.5 mph5.6 kmh 26.55 in899.1 mb - 0.00 in0.0 mm 3.90 in99.1 mm
11:20 AM 69.5°F20.8°C 57.2°F14.0°C 65% 3.5 mph WSW5.6 kmh WSW 3.5 mph5.6 kmh 26.55 in899.1 mb - 0.00 in0.0 mm 3.90 in99.1 mm
11:25 AM 70.0°F21.1°C 57.3°F14.1°C 64% 3.5 mph WSW5.6 kmh WSW 3.5 mph5.6 kmh 26.55 in899.1 mb - 0.00 in0.0 mm 3.90 in99.1 mm
11:30 AM 68.0°F20.0°C 55.4°F13.0°C 64% Calm Calm -- 26.57 in899.8 mb - 0.00 in0.0 mm 3.90 in99.1 mm
11:35 AM 70.0°F21.1°C 56.8°F13.8°C 63% 4.6 mph W7.4 kmh W 6.9 mph11.1 kmh 26.55 in899.1 mb - 0.00 in0.0 mm 3.90 in99.1 mm
11:40 AM 70.0°F21.1°C 54.1°F12.3°C 57% 3.5 mph SW5.6 kmh SW 3.5 mph5.6 kmh 26.55 in899.1 mb - 0.00 in0.0 mm 3.90 in99.1 mm
11:45 AM 72.0°F22.2°C 59.2°F15.1°C 64% 2.3 mph SW3.7 kmh SW 3.5 mph5.6 kmh 26.55 in899.1 mb - 0.00 in0.0 mm 3.90 in99.1 mm
11:50 AM 71.2°F21.8°C 58.0°F14.4°C 63% 3.5 mph WSW5.6 kmh WSW 5.8 mph9.3 kmh 26.55 in899.1 mb - 0.00 in0.0 mm 3.90 in99.1 mm
11:55 AM 71.0°F21.7°C 57.8°F14.3°C 63% 3.5 mph WSW5.6 kmh WSW 5.8 mph9.3 kmh 26.55 in899.1 mb - 0.00 in0.0 mm 3.90 in99.1 mm
12:00 PM 70.0°F21.1°C 54.1°F12.3°C 57% 3.5 mph SW5.6 kmh SW 5.8 mph9.3 kmh 26.55 in899.1 mb - 0.00 in0.0 mm 3.90 in99.1 mm
12:10 PM 73.0°F22.8°C 38.0°F3.3°C 28% 3.5 mph SW5.6 kmh SW 3.5 mph5.6 kmh 26.55 in899.1 mb - 0.00 in0.0 mm 3.90 in99.1 mm
12:15 PM 73.0°F22.8°C 41.4°F5.2°C 32% 3.5 mph SSE5.6 kmh SSE 5.8 mph9.3 kmh 26.55 in899.1 mb - 0.00 in0.0 mm 3.90 in99.1 mm
12:20 PM 74.4°F23.6°C 38.2°F3.4°C 27% 3.5 mph S5.6 kmh S 5.8 mph9.3 kmh 26.55 in899.1 mb - 0.00 in0.0 mm 3.90 in99.1 mm
12:25 PM 75.0°F23.9°C 35.7°F2.1°C 24% 3.5 mph SSW5.6 kmh SSW 3.5 mph5.6 kmh 26.55 in899.1 mb - 0.00 in0.0 mm 3.90 in99.1 mm
12:30 PM 75.0°F23.9°C 35.7°F2.1°C 24% 3.5 mph W5.6 kmh W 3.5 mph5.6 kmh 26.55 in899.1 mb - 0.00 in0.0 mm 3.90 in99.1 mm
12:35 PM 75.0°F23.9°C 44.7°F7.1°C 34% 3.5 mph W5.6 kmh W 5.8 mph9.3 kmh 26.55 in899.1 mb - 0.00 in0.0 mm 3.90 in99.1 mm
12:40 PM 74.0°F23.3°C 46.1°F7.8°C 37% Calm Calm 1.2 mph1.9 kmh 26.55 in899.1 mb - 0.00 in0.0 mm 3.90 in99.1 mm
12:45 PM 75.0°F23.9°C 44.7°F7.1°C 34% 3.5 mph W5.6 kmh W 5.8 mph9.3 kmh 26.55 in899.1 mb - 0.00 in0.0 mm 3.90 in99.1 mm
12:50 PM 75.0°F23.9°C 39.7°F4.3°C 28% 4.6 mph SSW7.4 kmh SSW 6.9 mph11.1 kmh 26.55 in899.1 mb - 0.00 in0.0 mm 3.90 in99.1 mm
12:55 PM 75.0°F23.9°C 39.7°F4.3°C 28% 4.6 mph S7.4 kmh S 6.9 mph11.1 kmh 26.55 in899.1 mb - 0.00 in0.0 mm 3.90 in99.1 mm
01:00 PM 75.0°F23.9°C 43.9°F6.6°C 33% 2.3 mph SW3.7 kmh SW 2.3 mph3.7 kmh 26.55 in899.1 mb - 0.00 in0.0 mm 3.90 in99.1 mm
01:10 PM 75.0°F23.9°C 39.7°F4.3°C 28% 3.5 mph W5.6 kmh W 3.5 mph5.6 kmh 26.55 in899.1 mb - 0.00 in0.0 mm 3.90 in99.1 mm
01:15 PM 75.0°F23.9°C 41.5°F5.3°C 30% 2.3 mph WNW3.7 kmh WNW 3.5 mph5.6 kmh 26.55 in899.1 mb - 0.00 in0.0 mm 3.90 in99.1 mm
01:20 PM 75.0°F23.9°C 40.6°F4.8°C 29% 2.3 mph SW3.7 kmh SW 3.5 mph5.6 kmh 26.55 in899.1 mb - 0.00 in0.0 mm 3.90 in99.1 mm
01:25 PM 75.0°F23.9°C 39.7°F4.3°C 28% 3.5 mph SSW5.6 kmh SSW 3.5 mph5.6 kmh 26.55 in899.1 mb - 0.00 in0.0 mm 3.90 in99.1 mm
01:30 PM 69.0°F20.6°C 53.6°F12.0°C 58% Calm Calm -- 26.57 in899.8 mb - 0.00 in0.0 mm 3.90 in99.1 mm
01:35 PM 76.0°F24.4°C 37.6°F3.1°C 25% 3.5 mph WSW5.6 kmh WSW 6.9 mph11.1 kmh 26.55 in899.1 mb - 0.00 in0.0 mm 3.90 in99.1 mm
01:40 PM 76.0°F24.4°C 43.2°F6.2°C 31% 1.2 mph ENE1.9 kmh ENE 2.3 mph3.7 kmh 26.54 in898.7 mb - 0.00 in0.0 mm 3.90 in99.1 mm
01:45 PM 76.0°F24.4°C 45.6°F7.6°C 34% 2.3 mph WSW3.7 kmh WSW 2.3 mph3.7 kmh 26.55 in899.1 mb - 0.00 in0.0 mm 3.90 in99.1 mm
01:50 PM 76.0°F24.4°C 44.8°F7.1°C 33% 2.3 mph SW3.7 kmh SW 5.8 mph9.3 kmh 26.55 in899.1 mb - 0.00 in0.0 mm 3.90 in99.1 mm
01:55 PM 76.0°F24.4°C 42.3°F5.7°C 30% 3.5 mph SW5.6 kmh SW 5.8 mph9.3 kmh 26.55 in899.1 mb - 0.00 in0.0 mm 3.90 in99.1 mm
02:00 PM 72.0°F22.2°C 53.9°F12.2°C 53% 1.2 mph SW1.9 kmh SW 2.3 mph3.7 kmh 26.56 in899.4 mb - 0.00 in0.0 mm 3.90 in99.1 mm
02:10 PM 76.0°F24.4°C 39.6°F4.2°C 27% 3.5 mph WSW5.6 kmh WSW 3.5 mph5.6 kmh 26.56 in899.4 mb - 0.00 in0.0 mm 3.90 in99.1 mm
02:15 PM 76.0°F24.4°C 39.6°F4.2°C 27% 3.5 mph W5.6 kmh W 5.8 mph9.3 kmh 26.55 in899.1 mb - 0.00 in0.0 mm 3.90 in99.1 mm
02:20 PM 76.0°F24.4°C 38.6°F3.7°C 26% 3.5 mph W5.6 kmh W 5.8 mph9.3 kmh 26.55 in899.1 mb - 0.00 in0.0 mm 3.90 in99.1 mm
02:25 PM 76.0°F24.4°C 35.5°F1.9°C 23% 3.5 mph WNW5.6 kmh WNW 5.8 mph9.3 kmh 26.56 in899.4 mb - 0.00 in0.0 mm 3.90 in99.1 mm
02:30 PM 75.0°F23.9°C 39.7°F4.3°C 28% 3.5 mph WSW5.6 kmh WSW 3.5 mph5.6 kmh 26.56 in899.4 mb - 0.00 in0.0 mm 3.90 in99.1 mm
02:35 PM 76.0°F24.4°C 37.6°F3.1°C 25% 3.5 mph NW5.6 kmh NW 5.8 mph9.3 kmh 26.56 in899.4 mb - 0.00 in0.0 mm 3.90 in99.1 mm
02:40 PM 75.0°F23.9°C 42.3°F5.7°C 31% 3.5 mph WSW5.6 kmh WSW 3.5 mph5.6 kmh 26.56 in899.4 mb - 0.00 in0.0 mm 3.90 in99.1 mm
02:45 PM 75.0°F23.9°C 37.8°F3.2°C 26% 2.3 mph W3.7 kmh W 3.5 mph5.6 kmh 26.56 in899.4 mb - 0.00 in0.0 mm 3.90 in99.1 mm
02:50 PM 75.0°F23.9°C 36.8°F2.7°C 25% 2.3 mph W3.7 kmh W 2.3 mph3.7 kmh 26.56 in899.4 mb - 0.00 in0.0 mm 3.90 in99.1 mm
02:55 PM 72.0°F22.2°C 53.9°F12.2°C 53% 1.2 mph SW1.9 kmh SW 2.3 mph3.7 kmh 26.56 in899.4 mb - 0.00 in0.0 mm 3.90 in99.1 mm
03:00 PM 75.0°F23.9°C 43.9°F6.6°C 33% 1.2 mph WSW1.9 kmh WSW 2.3 mph3.7 kmh 26.55 in899.1 mb - 0.00 in0.0 mm 3.90 in99.1 mm
03:10 PM 74.0°F23.3°C 43.8°F6.6°C 34% 2.3 mph W3.7 kmh W 3.5 mph5.6 kmh 26.56 in899.4 mb - 0.00 in0.0 mm 3.90 in99.1 mm
03:15 PM 74.0°F23.3°C 40.6°F4.8°C 30% 3.5 mph W5.6 kmh W 8.1 mph13.0 kmh 26.56 in899.4 mb - 0.00 in0.0 mm 3.90 in99.1 mm
03:20 PM 74.0°F23.3°C 36.9°F2.7°C 26% 3.5 mph WNW5.6 kmh WNW 8.1 mph13.0 kmh 26.56 in899.4 mb - 0.00 in0.0 mm 3.90 in99.1 mm
03:25 PM 74.0°F23.3°C 38.8°F3.8°C 28% 3.5 mph SW5.6 kmh SW 6.9 mph11.1 kmh 26.56 in899.4 mb - 0.00 in0.0 mm 3.90 in99.1 mm
03:30 PM 74.0°F23.3°C 41.4°F5.2°C 31% 4.6 mph WNW7.4 kmh WNW 5.8 mph9.3 kmh 26.57 in899.8 mb - 0.00 in0.0 mm 3.90 in99.1 mm
03:35 PM 74.0°F23.3°C 43.8°F6.6°C 34% 2.3 mph WSW3.7 kmh WSW 2.3 mph3.7 kmh 26.57 in899.8 mb - 0.00 in0.0 mm 3.90 in99.1 mm
03:40 PM 74.0°F23.3°C 43.8°F6.6°C 34% Calm Calm -- 26.37 in893.0 mb - 0.08 in2.0 mm 3.98 in101.1 mm
03:45 PM 56.0°F13.3°C 55.7°F13.2°C 99% Calm Calm 3.5 mph5.6 kmh 26.41 in894.3 mb - 0.08 in2.0 mm 3.98 in101.1 mm
03:50 PM 72.0°F22.2°C 49.5°F9.7°C 45% 2.3 mph SW3.7 kmh SW 3.5 mph5.6 kmh 26.56 in899.4 mb - 0.08 in2.0 mm 3.98 in101.1 mm
03:55 PM 72.0°F22.2°C 50.7°F10.4°C 47% 3.5 mph WSW5.6 kmh WSW 3.5 mph5.6 kmh 26.56 in899.4 mb - 0.08 in2.0 mm 3.98 in101.1 mm
04:00 PM 72.0°F22.2°C 52.3°F11.3°C 50% 1.2 mph W1.9 kmh W 2.3 mph3.7 kmh 26.56 in899.4 mb - 0.08 in2.0 mm 3.98 in101.1 mm
04:10 PM 73.0°F22.8°C 43.7°F6.5°C 35% Calm Calm 3.5 mph5.6 kmh 26.57 in899.8 mb - 0.08 in2.0 mm 3.98 in101.1 mm
04:15 PM 73.0°F22.8°C 50.4°F10.2°C 45% Calm Calm 1.2 mph1.9 kmh 26.57 in899.8 mb - 0.08 in2.0 mm 3.98 in101.1 mm
04:20 PM 73.0°F22.8°C 36.1°F2.3°C 26% 4.6 mph WSW7.4 kmh WSW 6.9 mph11.1 kmh 26.56 in899.4 mb - 0.08 in2.0 mm 3.98 in101.1 mm
04:25 PM 71.0°F21.7°C 50.9°F10.5°C 49% 2.3 mph SW3.7 kmh SW 3.5 mph5.6 kmh 26.57 in899.8 mb - 0.08 in2.0 mm 3.98 in101.1 mm
04:30 PM 72.0°F22.2°C 47.6°F8.7°C 42% 2.3 mph W3.7 kmh W 3.5 mph5.6 kmh 26.57 in899.8 mb - 0.08 in2.0 mm 3.98 in101.1 mm
04:35 PM 72.0°F22.2°C 50.1°F10.1°C 46% 2.3 mph W3.7 kmh W 2.3 mph3.7 kmh 26.57 in899.8 mb - 0.08 in2.0 mm 3.98 in101.1 mm
04:40 PM 72.0°F22.2°C 50.1°F10.1°C 46% 1.2 mph W1.9 kmh W 2.3 mph3.7 kmh 26.57 in899.8 mb - 0.00 in0.0 mm 3.98 in101.1 mm
04:45 PM 72.0°F22.2°C 50.1°F10.1°C 46% Calm Calm 1.2 mph1.9 kmh 26.57 in899.8 mb - 0.00 in0.0 mm 3.98 in101.1 mm
04:50 PM 73.0°F22.8°C 46.6°F8.1°C 39% 3.5 mph WSW5.6 kmh WSW 3.5 mph5.6 kmh 26.57 in899.8 mb - 0.00 in0.0 mm 3.98 in101.1 mm
04:55 PM 72.0°F22.2°C 49.5°F9.7°C 45% 2.3 mph W3.7 kmh W 3.5 mph5.6 kmh 26.57 in899.8 mb - 0.00 in0.0 mm 3.98 in101.1 mm
05:00 PM 71.0°F21.7°C 49.7°F9.8°C 47% Calm Calm -- 26.57 in899.8 mb - 0.00 in0.0 mm 3.98 in101.1 mm
05:10 PM 76.0°F24.4°C 35.5°F1.9°C 23% 3.5 mph WNW5.6 kmh WNW 5.8 mph9.3 kmh 26.56 in899.4 mb - 0.00 in0.0 mm 3.98 in101.1 mm
05:15 PM 70.0°F21.1°C 50.5°F10.3°C 50% 1.2 mph W1.9 kmh W 1.2 mph1.9 kmh 26.57 in899.8 mb - 0.00 in0.0 mm 3.98 in101.1 mm
05:20 PM 70.0°F21.1°C 49.4°F9.7°C 48% 1.2 mph WSW1.9 kmh WSW 2.3 mph3.7 kmh 26.58 in900.1 mb - 0.00 in0.0 mm 3.98 in101.1 mm
05:25 PM 70.0°F21.1°C 49.4°F9.7°C 48% Calm Calm 1.2 mph1.9 kmh 26.58 in900.1 mb - 0.00 in0.0 mm 3.98 in101.1 mm
05:30 PM 69.0°F20.6°C 47.9°F8.8°C 47% 3.5 mph WSW5.6 kmh WSW 5.8 mph9.3 kmh 26.57 in899.8 mb - 0.00 in0.0 mm 3.98 in101.1 mm
05:35 PM 69.0°F20.6°C 46.8°F8.2°C 45% 1.2 mph W1.9 kmh W 5.8 mph9.3 kmh 26.58 in900.1 mb - 0.00 in0.0 mm 3.98 in101.1 mm
05:40 PM 69.0°F20.6°C 46.8°F8.2°C 45% 1.2 mph WNW1.9 kmh WNW 1.2 mph1.9 kmh 26.58 in900.1 mb - 0.00 in0.0 mm 3.98 in101.1 mm
05:45 PM 69.0°F20.6°C 47.4°F8.6°C 46% Calm Calm 1.2 mph1.9 kmh 26.57 in899.8 mb - 0.00 in0.0 mm 3.98 in101.1 mm
05:50 PM 69.0°F20.6°C 46.8°F8.2°C 45% 2.3 mph WNW3.7 kmh WNW 2.3 mph3.7 kmh 26.57 in899.8 mb - 0.00 in0.0 mm 3.98 in101.1 mm
05:55 PM 69.0°F20.6°C 47.4°F8.6°C 46% Calm Calm 1.2 mph1.9 kmh 26.58 in900.1 mb - 0.00 in0.0 mm 3.98 in101.1 mm
06:00 PM 68.0°F20.0°C 45.3°F7.4°C 44% 2.3 mph WSW3.7 kmh WSW 3.5 mph5.6 kmh 26.58 in900.1 mb - 0.00 in0.0 mm 3.98 in101.1 mm
06:10 PM 68.0°F20.0°C 47.0°F8.3°C 47% 1.2 mph SW1.9 kmh SW 1.2 mph1.9 kmh 26.59 in900.4 mb - 0.00 in0.0 mm 3.98 in101.1 mm
06:15 PM 68.0°F20.0°C 47.6°F8.7°C 48% 1.2 mph WSW1.9 kmh WSW 1.2 mph1.9 kmh 26.59 in900.4 mb - 0.00 in0.0 mm 3.98 in101.1 mm
06:20 PM 68.0°F20.0°C 45.9°F7.7°C 45% 1.2 mph W1.9 kmh W 1.2 mph1.9 kmh 26.59 in900.4 mb - 0.00 in0.0 mm 3.98 in101.1 mm
06:25 PM 67.0°F19.4°C 45.5°F7.5°C 46% Calm Calm -- 26.60 in900.8 mb - 0.00 in0.0 mm 3.98 in101.1 mm
06:30 PM 67.0°F19.4°C 44.9°F7.2°C 45% 1.2 mph WSW1.9 kmh WSW 2.3 mph3.7 kmh 26.60 in900.8 mb - 0.00 in0.0 mm 3.98 in101.1 mm
06:35 PM 66.6°F19.2°C 44.0°F6.7°C 44% Calm Calm 2.3 mph3.7 kmh 26.60 in900.8 mb - 0.00 in0.0 mm 3.98 in101.1 mm
06:40 PM 66.0°F18.9°C 42.9°F6.1°C 43% Calm Calm -- 26.60 in900.8 mb - 0.00 in0.0 mm 3.98 in101.1 mm
06:45 PM 66.0°F18.9°C 44.6°F7.0°C 46% 1.2 mph ESE1.9 kmh ESE 1.2 mph1.9 kmh 26.60 in900.8 mb - 0.00 in0.0 mm 3.98 in101.1 mm
06:50 PM 66.0°F18.9°C 44.6°F7.0°C 46% Calm Calm -- 26.60 in900.8 mb - 0.00 in0.0 mm 3.98 in101.1 mm
06:55 PM 65.0°F18.3°C 44.3°F6.8°C 47% Calm Calm 1.2 mph1.9 kmh 26.61 in901.1 mb - 0.00 in0.0 mm 3.98 in101.1 mm
07:00 PM 65.0°F18.3°C 43.7°F6.5°C 46% Calm Calm -- 26.61 in901.1 mb - 0.00 in0.0 mm 3.98 in101.1 mm
07:10 PM 65.0°F18.3°C 44.3°F6.8°C 47% Calm Calm -- 26.62 in901.5 mb - 0.00 in0.0 mm 3.98 in101.1 mm
07:15 PM 65.0°F18.3°C 43.7°F6.5°C 46% Calm Calm -- 26.62 in901.5 mb - 0.00 in0.0 mm 3.98 in101.1 mm
07:20 PM 65.0°F18.3°C 44.3°F6.8°C 47% Calm Calm -- 26.62 in901.5 mb - 0.00 in0.0 mm 3.98 in101.1 mm
07:25 PM 64.0°F17.8°C 43.4°F6.3°C 47% 1.2 mph SE1.9 kmh SE 1.2 mph1.9 kmh 26.62 in901.5 mb - 0.00 in0.0 mm 3.98 in101.1 mm
07:30 PM 64.0°F17.8°C 43.9°F6.6°C 48% Calm Calm -- 26.62 in901.5 mb - 0.00 in0.0 mm 3.98 in101.1 mm
07:35 PM 64.0°F17.8°C 43.9°F6.6°C 48% Calm Calm -- 26.62 in901.5 mb - 0.00 in0.0 mm 3.98 in101.1 mm
07:40 PM 64.0°F17.8°C 44.4°F6.9°C 49% Calm Calm -- 26.63 in901.8 mb - 0.00 in0.0 mm 3.98 in101.1 mm
07:45 PM 63.0°F17.2°C 45.1°F7.3°C 52% Calm Calm -- 26.63 in901.8 mb - 0.00 in0.0 mm 3.98 in101.1 mm
07:50 PM 62.0°F16.7°C 46.6°F8.1°C 57% Calm Calm -- 26.63 in901.8 mb - 0.00 in0.0 mm 3.98 in101.1 mm
07:55 PM 62.0°F16.7°C 46.6°F8.1°C 57% Calm Calm -- 26.64 in902.1 mb - 0.00 in0.0 mm 3.98 in101.1 mm
08:00 PM 65.9°F18.8°C 50.3°F10.2°C 57% 1.2 mph ESE1.9 kmh ESE 1.2 mph1.9 kmh 26.60 in900.8 mb - 0.00 in0.0 mm 3.98 in101.1 mm
08:10 PM 73.0°F22.8°C 38.0°F3.3°C 28% 3.5 mph SW5.6 kmh SW 3.5 mph5.6 kmh 26.55 in899.1 mb - 0.00 in0.0 mm 3.98 in101.1 mm
08:15 PM 61.0°F16.1°C 47.4°F8.6°C 61% Calm Calm -- 26.64 in902.1 mb - 0.00 in0.0 mm 3.98 in101.1 mm
08:20 PM 61.0°F16.1°C 46.6°F8.1°C 59% Calm Calm -- 26.64 in902.1 mb - 0.00 in0.0 mm 3.98 in101.1 mm
08:25 PM 60.0°F15.6°C 46.9°F8.3°C 62% Calm Calm -- 26.65 in902.5 mb - 0.00 in0.0 mm 3.98 in101.1 mm
08:30 PM 60.0°F15.6°C 47.4°F8.6°C 63% Calm Calm -- 26.65 in902.5 mb - 0.00 in0.0 mm 3.98 in101.1 mm
08:35 PM 59.9°F15.5°C 47.3°F8.5°C 63% Calm Calm -- 26.65 in902.5 mb - 0.00 in0.0 mm 3.98 in101.1 mm
08:40 PM 59.0°F15.0°C 46.8°F8.2°C 64% Calm Calm -- 26.64 in902.1 mb - 0.00 in0.0 mm 3.98 in101.1 mm
08:45 PM 59.0°F15.0°C 48.8°F9.3°C 69% Calm Calm -- 26.65 in902.5 mb - 0.00 in0.0 mm 3.98 in101.1 mm
08:50 PM 57.0°F13.9°C 46.5°F8.1°C 68% Calm Calm -- 26.67 in903.2 mb - 0.00 in0.0 mm 3.98 in101.1 mm
08:55 PM 57.0°F13.9°C 47.3°F8.5°C 70% Calm Calm -- 26.67 in903.2 mb - 0.00 in0.0 mm 3.98 in101.1 mm
09:00 PM 57.0°F13.9°C 46.5°F8.1°C 68% Calm Calm -- 26.67 in903.2 mb - 0.00 in0.0 mm 3.98 in101.1 mm
09:10 PM 56.0°F13.3°C 46.7°F8.2°C 71% Calm Calm -- 26.68 in903.5 mb - 0.00 in0.0 mm 3.98 in101.1 mm
09:15 PM 55.0°F12.8°C 46.1°F7.8°C 72% Calm Calm 1.2 mph1.9 kmh 26.68 in903.5 mb - 0.00 in0.0 mm 3.98 in101.1 mm
09:20 PM 72.0°F22.2°C 50.1°F10.1°C 46% Calm Calm 1.2 mph1.9 kmh 26.57 in899.8 mb - 0.00 in0.0 mm 3.98 in101.1 mm
09:25 PM 55.0°F12.8°C 45.8°F7.7°C 71% Calm Calm -- 26.70 in904.2 mb - 0.00 in0.0 mm 3.98 in101.1 mm
09:30 PM 55.0°F12.8°C 46.5°F8.1°C 73% Calm Calm -- 26.70 in904.2 mb - 0.00 in0.0 mm 3.98 in101.1 mm
09:35 PM 54.1°F12.3°C 44.5°F6.9°C 70% Calm Calm 1.2 mph1.9 kmh 26.70 in904.2 mb - 0.00 in0.0 mm 3.98 in101.1 mm
09:40 PM 55.0°F12.8°C 45.1°F7.3°C 69% Calm Calm 1.2 mph1.9 kmh 26.69 in903.8 mb - 0.00 in0.0 mm 3.98 in101.1 mm
09:45 PM 61.0°F16.1°C 47.4°F8.6°C 61% Calm Calm -- 26.64 in902.1 mb - 0.00 in0.0 mm 3.98 in101.1 mm
09:50 PM 55.0°F12.8°C 45.0°F7.2°C 69% Calm Calm 1.2 mph1.9 kmh 26.71 in904.5 mb - 0.00 in0.0 mm 3.98 in101.1 mm
09:55 PM 55.0°F12.8°C 45.0°F7.2°C 69% Calm Calm 1.2 mph1.9 kmh 26.71 in904.5 mb - 0.00 in0.0 mm 3.98 in101.1 mm
10:00 PM 55.0°F12.8°C 45.0°F7.2°C 69% Calm Calm 1.2 mph1.9 kmh 26.71 in904.5 mb - 0.00 in0.0 mm 3.98 in101.1 mm
10:10 PM 55.0°F12.8°C 45.0°F7.2°C 69% Calm Calm 1.2 mph1.9 kmh 26.71 in904.5 mb - 0.00 in0.0 mm 3.98 in101.1 mm
10:15 PM 55.1°F12.8°C 45.1°F7.3°C 69% Calm Calm 1.2 mph1.9 kmh 26.71 in904.5 mb - 0.00 in0.0 mm 3.98 in101.1 mm
10:20 PM 59.0°F15.0°C 46.8°F8.2°C 64% Calm Calm -- 26.64 in902.1 mb - 0.00 in0.0 mm 3.98 in101.1 mm
10:25 PM 51.0°F10.6°C 50.7°F10.4°C 99% Calm Calm -- 26.55 in899.1 mb - 0.66 in16.8 mm 4.64 in117.9 mm
10:30 PM 54.0°F12.2°C 44.4°F6.9°C 70% Calm Calm -- 26.71 in904.5 mb - 0.66 in16.8 mm 4.64 in117.9 mm
10:35 PM 55.0°F12.8°C 45.8°F7.7°C 71% Calm Calm -- 26.71 in904.5 mb - 0.66 in16.8 mm 4.64 in117.9 mm
10:40 PM 54.0°F12.2°C 45.9°F7.7°C 74% Calm Calm -- 26.72 in904.8 mb - 0.66 in16.8 mm 4.64 in117.9 mm
10:45 PM 54.0°F12.2°C 45.5°F7.5°C 73% Calm Calm -- 26.72 in904.8 mb - 0.66 in16.8 mm 4.64 in117.9 mm
10:50 PM 54.0°F12.2°C 45.5°F7.5°C 73% Calm Calm -- 26.72 in904.8 mb - 0.66 in16.8 mm 4.64 in117.9 mm
10:55 PM 54.0°F12.2°C 45.2°F7.3°C 72% Calm Calm -- 26.71 in904.5 mb - 0.66 in16.8 mm 4.64 in117.9 mm
11:00 PM 53.0°F11.7°C 45.3°F7.4°C 75% Calm Calm -- 26.72 in904.8 mb - 0.66 in16.8 mm 43.56 in1106.4 mm
11:10 PM 53.0°F11.7°C 45.3°F7.4°C 75% Calm Calm -- 26.72 in904.8 mb - 0.66 in16.8 mm 44.22 in1123.2 mm
11:15 PM 52.0°F11.1°C 44.3°F6.8°C 75% Calm Calm -- 26.73 in905.2 mb - 0.66 in16.8 mm 44.88 in1140.0 mm
11:20 PM 52.7°F11.5°C 45.0°F7.2°C 75% Calm Calm -- 26.73 in905.2 mb - 0.66 in16.8 mm 45.54 in1156.7 mm
11:25 PM 53.0°F11.7°C 45.3°F7.4°C 75% Calm Calm -- 26.73 in905.2 mb - 0.00 in0.0 mm 45.54 in1156.7 mm
11:30 PM 52.0°F11.1°C 44.7°F7.1°C 76% Calm Calm -- 26.73 in905.2 mb - 0.00 in0.0 mm 45.54 in1156.7 mm
11:35 PM 52.0°F11.1°C 44.0°F6.7°C 74% Calm Calm -- 26.73 in905.2 mb - 0.00 in0.0 mm 45.54 in1156.7 mm
11:40 PM 52.0°F11.1°C 44.0°F6.7°C 74% Calm Calm -- 26.73 in905.2 mb - 0.00 in0.0 mm 45.54 in1156.7 mm
11:45 PM 52.0°F11.1°C 44.0°F6.7°C 74% Calm Calm -- 26.74 in905.5 mb - 0.00 in0.0 mm 45.54 in1156.7 mm
11:50 PM 51.1°F10.6°C 43.5°F6.4°C 75% Calm Calm -- 26.73 in905.2 mb - 0.00 in0.0 mm 45.54 in1156.7 mm
11:55 PM 51.0°F10.6°C 43.4°F6.3°C 75% Calm Calm -- 26.73 in905.2 mb - 0.00 in0.0 mm 45.54 in1156.7 mm